createdAt,value
2019-02-18T00:00:13.915Z,8.34
2019-02-18T00:02:44.109Z,8.15
2019-02-18T00:05:12.602Z,7.92
2019-02-18T00:07:40.326Z,8.03
2019-02-18T00:10:07.409Z,7.86
2019-02-18T00:12:34.687Z,8.19
2019-02-18T00:15:02.520Z,7.99
2019-02-18T00:17:30.541Z,7.73
2019-02-18T00:19:57.613Z,7.91
2019-02-18T00:22:24.879Z,7.86
2019-02-18T00:24:53.040Z,7.86
2019-02-18T00:27:20.125Z,7.74
2019-02-18T00:29:48.109Z,8.08
2019-02-18T00:32:15.202Z,8.12
2019-02-18T00:34:42.771Z,7.63
2019-02-18T00:37:09.842Z,7.73
2019-02-18T00:39:37.057Z,8.05
2019-02-18T00:42:04.899Z,7.92
2019-02-18T00:44:33.692Z,7.90
2019-02-18T00:47:01.166Z,7.74
2019-02-18T00:49:28.593Z,7.74
2019-02-18T00:51:55.668Z,7.78
2019-02-18T00:54:23.107Z,8.11
2019-02-18T00:56:51.071Z,8.01
2019-02-18T00:59:18.833Z,7.62
2019-02-18T01:01:46.902Z,8.18
2019-02-18T01:04:14.342Z,8.00
2019-02-18T01:06:42.027Z,8.00
2019-02-18T01:09:11.835Z,8.08
2019-02-18T01:11:39.600Z,8.04
2019-02-18T01:14:07.804Z,8.22
2019-02-18T01:16:34.880Z,7.98
2019-02-18T01:19:02.478Z,7.78
2019-02-18T01:21:30.174Z,7.78
2019-02-18T01:23:57.602Z,7.76
2019-02-18T01:26:25.030Z,7.78
2019-02-18T01:28:52.080Z,7.96
2019-02-18T01:31:19.197Z,7.92
2019-02-18T01:33:46.277Z,7.97
2019-02-18T01:36:14.460Z,7.80
2019-02-18T01:38:41.532Z,7.79
2019-02-18T01:41:08.956Z,7.69
2019-02-18T01:43:37.827Z,7.27
2019-02-18T01:46:05.079Z,7.42
2019-02-18T01:48:33.201Z,7.68
2019-02-18T01:51:00.298Z,7.57
2019-02-18T01:53:28.461Z,7.51
2019-02-18T01:55:55.550Z,7.61
2019-02-18T01:58:22.626Z,7.67
2019-02-18T02:00:50.471Z,7.66
2019-02-18T02:03:18.233Z,7.88
2019-02-18T02:05:46.004Z,7.79
2019-02-18T02:08:13.814Z,7.68
2019-02-18T02:10:41.274Z,7.33
2019-02-18T02:13:37.450Z,7.40
2019-02-18T02:16:10.154Z,7.41
2019-02-18T02:18:38.409Z,7.89
2019-02-18T02:21:06.898Z,7.69
2019-02-18T02:23:35.073Z,7.50
2019-02-18T02:26:02.568Z,7.61
2019-02-18T02:28:29.921Z,7.68
2019-02-18T02:31:01.039Z,7.76
2019-02-18T02:33:31.347Z,7.66
2019-02-18T02:35:58.947Z,7.61
2019-02-18T02:38:26.668Z,7.50
2019-02-18T02:40:54.745Z,7.72
2019-02-18T02:43:22.451Z,7.68
2019-02-18T02:45:50.470Z,7.78
2019-02-18T02:48:18.855Z,7.70
2019-02-18T02:50:46.516Z,7.44
2019-02-18T02:53:14.275Z,7.51
2019-02-18T02:55:41.643Z,7.44
2019-02-18T02:58:09.051Z,7.40
2019-02-18T03:00:37.179Z,7.51
2019-02-18T03:03:04.618Z,7.37
2019-02-18T03:05:32.274Z,7.42
2019-02-18T03:08:00.039Z,7.59
2019-02-18T03:10:27.238Z,7.25
2019-02-18T03:12:54.656Z,7.02
2019-02-18T03:15:23.842Z,7.23
2019-02-18T03:17:51.606Z,7.04
2019-02-18T03:20:18.974Z,7.32
2019-02-18T03:22:46.041Z,7.44
2019-02-18T03:25:16.274Z,7.18
2019-02-18T03:27:45.427Z,7.07
2019-02-18T03:30:49.696Z,7.31
2019-02-18T03:33:21.095Z,7.52
2019-02-18T03:35:48.863Z,7.28
2019-02-18T03:38:16.326Z,7.26
2019-02-18T03:40:43.684Z,7.06
2019-02-18T03:43:11.330Z,7.01
2019-02-18T03:45:38.422Z,7.07
2019-02-18T03:48:05.472Z,6.99
2019-02-18T03:50:32.515Z,7.09
2019-02-18T03:52:59.899Z,7.51
2019-02-18T03:55:27.289Z,7.52
2019-02-18T03:57:54.473Z,7.38
2019-02-18T04:00:21.797Z,7.06
2019-02-18T04:02:48.863Z,7.22
2019-02-18T04:05:16.202Z,7.50
2019-02-18T04:07:43.957Z,7.23
2019-02-18T04:10:11.413Z,7.25
2019-02-18T04:12:38.579Z,7.22
2019-02-18T04:15:08.238Z,7.17
2019-02-18T04:17:37.065Z,6.97
2019-02-18T04:20:04.730Z,6.99
2019-02-18T04:22:32.697Z,6.99
2019-02-18T04:25:00.347Z,7.24
2019-02-18T04:27:27.713Z,7.13
2019-02-18T04:29:55.066Z,7.09
2019-02-18T04:32:22.932Z,7.10
2019-02-18T04:34:50.706Z,6.98
2019-02-18T04:37:19.176Z,6.84
2019-02-18T04:39:47.066Z,6.76
2019-02-18T04:42:16.243Z,7.24
2019-02-18T04:44:44.107Z,6.88
2019-02-18T04:47:11.461Z,6.89
2019-02-18T04:49:38.852Z,6.77
2019-02-18T04:52:07.607Z,6.49
2019-02-18T04:54:34.973Z,6.67
2019-02-18T04:57:02.314Z,6.87
2019-02-18T04:59:29.971Z,6.86
2019-02-18T05:01:57.009Z,6.91
2019-02-18T05:04:24.093Z,6.73
2019-02-18T05:06:52.391Z,6.53
2019-02-18T05:09:19.435Z,6.67
2019-02-18T05:11:47.411Z,6.80
2019-02-18T05:14:14.504Z,7.03
2019-02-18T05:16:41.573Z,6.94
2019-02-18T05:19:10.465Z,6.95
2019-02-18T05:21:38.630Z,6.89
2019-02-18T05:24:05.823Z,6.81
2019-02-18T05:26:33.268Z,6.90
2019-02-18T05:29:00.463Z,6.96
2019-02-18T05:31:29.301Z,6.83
2019-02-18T05:33:56.380Z,6.62
2019-02-18T05:36:23.442Z,6.71
2019-02-18T05:38:50.612Z,6.91
2019-02-18T05:41:17.644Z,7.00
2019-02-18T05:43:44.726Z,6.84
2019-02-18T05:46:12.059Z,6.68
2019-02-18T05:48:39.518Z,6.85
2019-02-18T05:51:06.972Z,6.54
2019-02-18T05:53:35.867Z,6.73
2019-02-18T05:56:03.244Z,6.73
2019-02-18T05:58:30.390Z,6.75
2019-02-18T06:00:59.357Z,6.84
2019-02-18T06:03:26.439Z,6.62
2019-02-18T06:05:53.499Z,6.54
2019-02-18T06:08:21.225Z,6.66
2019-02-18T06:10:48.531Z,6.66
2019-02-18T06:13:15.663Z,6.62
2019-02-18T06:15:42.768Z,6.73
2019-02-18T06:18:09.796Z,6.76
2019-02-18T06:20:36.874Z,6.79
2019-02-18T06:23:03.966Z,6.70
2019-02-18T06:25:31.439Z,6.69
2019-02-18T06:27:58.478Z,6.73
2019-02-18T06:30:25.556Z,6.70
2019-02-18T06:32:52.612Z,6.65
2019-02-18T06:35:19.696Z,6.79
2019-02-18T06:37:47.854Z,6.62
2019-02-18T06:40:14.906Z,6.67
2019-02-18T06:42:41.988Z,6.85
2019-02-18T06:45:35.097Z,6.73
2019-02-18T06:48:32.085Z,6.62
2019-02-18T06:50:59.797Z,6.81
2019-02-18T06:53:27.251Z,6.78
2019-02-18T06:55:54.917Z,6.74
2019-02-18T06:58:49.099Z,6.67
2019-02-18T07:01:29.355Z,6.82
2019-02-18T07:04:13.225Z,6.87
2019-02-18T07:07:09.944Z,6.82
2019-02-18T07:10:03.305Z,6.74
2019-02-18T07:12:50.629Z,7.16
2019-02-18T07:15:18.092Z,7.08
2019-02-18T07:17:45.743Z,7.03
2019-02-18T07:20:13.117Z,7.08
2019-02-18T07:22:41.262Z,7.07
2019-02-18T07:25:09.146Z,7.13
2019-02-18T07:27:37.303Z,7.05
2019-02-18T07:30:07.182Z,7.43
2019-02-18T07:32:34.580Z,7.40
2019-02-18T07:35:01.632Z,7.31
2019-02-18T07:37:29.563Z,7.46
2019-02-18T07:40:01.499Z,7.58
2019-02-18T07:42:26.405Z,7.53
2019-02-18T07:44:53.454Z,7.65
2019-02-18T07:47:20.525Z,7.62
2019-02-18T07:49:47.906Z,7.43
2019-02-18T07:52:14.962Z,7.76
2019-02-18T07:54:42.039Z,7.85
2019-02-18T07:57:09.212Z,7.70
2019-02-18T07:59:36.262Z,7.87
2019-02-18T08:02:05.182Z,7.88
2019-02-18T08:04:36.474Z,7.77
2019-02-18T08:07:03.830Z,7.96
2019-02-18T08:09:32.005Z,8.03
2019-02-18T08:11:59.053Z,8.34
2019-02-18T08:14:26.094Z,7.92
2019-02-18T08:16:54.447Z,8.33
2019-02-18T08:19:23.281Z,8.27
2019-02-18T08:21:50.358Z,8.65
2019-02-18T08:24:17.403Z,8.21
2019-02-18T08:26:44.480Z,8.46
2019-02-18T08:29:11.523Z,8.68
2019-02-18T08:31:39.686Z,8.85
2019-02-18T08:34:06.738Z,8.80
2019-02-18T08:36:33.930Z,8.80
2019-02-18T08:39:01.040Z,8.61
2019-02-18T08:41:31.301Z,9.19
2019-02-18T08:43:59.389Z,9.31
2019-02-18T08:46:26.458Z,9.65
2019-02-18T08:48:53.507Z,9.41
2019-02-18T08:51:20.570Z,9.91
2019-02-18T08:53:47.991Z,9.39
2019-02-18T08:56:15.173Z,9.57
2019-02-18T08:58:42.693Z,9.61
2019-02-18T09:01:10.126Z,9.61
2019-02-18T09:03:41.858Z,9.78
2019-02-18T09:06:08.953Z,10.16
2019-02-18T09:08:36.371Z,10.40
2019-02-18T09:11:05.010Z,10.37
2019-02-18T09:13:32.495Z,10.37
2019-02-18T09:16:00.586Z,10.67
2019-02-18T09:18:29.066Z,10.60
2019-02-18T09:20:56.498Z,10.77
2019-02-18T09:24:02.258Z,11.08
2019-02-18T09:26:30.330Z,11.19
2019-02-18T09:29:03.752Z,11.40
2019-02-18T09:31:33.430Z,11.46
2019-02-18T09:34:01.098Z,11.54
2019-02-18T09:36:29.987Z,11.30
2019-02-18T09:38:57.183Z,11.59
2019-02-18T09:41:26.338Z,11.73
2019-02-18T09:43:54.104Z,11.61
2019-02-18T09:46:21.583Z,11.90
2019-02-18T09:48:50.035Z,11.84
2019-02-18T09:51:18.516Z,11.72
2019-02-18T09:53:45.607Z,11.94
2019-02-18T09:56:13.052Z,12.08
2019-02-18T09:58:40.089Z,12.33
2019-02-18T10:01:07.836Z,12.20
2019-02-18T10:03:35.801Z,12.41
2019-02-18T10:06:03.463Z,12.74
2019-02-18T10:08:30.882Z,12.67
2019-02-18T10:10:58.582Z,12.97
2019-02-18T10:13:26.072Z,12.36
2019-02-18T10:15:55.254Z,11.94
2019-02-18T10:18:23.710Z,12.48
2019-02-18T10:20:52.119Z,12.59
2019-02-18T10:23:19.764Z,13.16
2019-02-18T10:25:46.825Z,12.84
2019-02-18T10:28:14.155Z,13.22
2019-02-18T10:30:41.640Z,13.26
2019-02-18T10:33:08.978Z,13.37
2019-02-18T10:35:36.161Z,13.20
2019-02-18T10:38:03.779Z,13.23
2019-02-18T10:40:31.149Z,13.33
2019-02-18T10:42:58.191Z,13.50
2019-02-18T10:45:25.443Z,13.34
2019-02-18T10:47:53.663Z,13.31
2019-02-18T10:50:20.697Z,12.91
2019-02-18T10:52:47.740Z,13.13
2019-02-18T10:55:15.400Z,13.13
2019-02-18T10:57:42.741Z,13.10
2019-02-18T11:00:10.669Z,13.26
2019-02-18T11:02:38.941Z,13.48
2019-02-18T11:05:06.997Z,13.41
2019-02-18T11:07:34.213Z,13.71
2019-02-18T11:10:03.988Z,13.62
2019-02-18T11:12:32.369Z,13.80
2019-02-18T11:14:59.852Z,13.66
2019-02-18T11:17:26.918Z,13.52
2019-02-18T11:19:54.037Z,13.94
2019-02-18T11:22:21.891Z,13.86
2019-02-18T11:24:49.564Z,13.75
2019-02-18T11:27:16.592Z,14.16
2019-02-18T11:29:44.379Z,14.22
2019-02-18T11:32:12.890Z,13.71
2019-02-18T11:34:41.531Z,14.20
2019-02-18T11:37:09.601Z,14.00
2019-02-18T11:39:37.262Z,14.19
2019-02-18T11:42:04.619Z,14.03
2019-02-18T11:44:32.075Z,14.05
2019-02-18T11:46:59.450Z,13.96
2019-02-18T11:49:26.490Z,14.35
2019-02-18T11:51:54.138Z,14.36
2019-02-18T11:54:21.214Z,14.47
2019-02-18T11:56:49.238Z,14.10
2019-02-18T11:59:24.026Z,14.07
2019-02-18T12:01:46.032Z,14.31
2019-02-18T12:04:13.485Z,14.62
2019-02-18T12:06:40.830Z,14.99
2019-02-18T12:09:08.505Z,14.53
2019-02-18T12:14:05.857Z,14.95
2019-02-18T12:16:33.515Z,14.88
2019-02-18T12:19:01.487Z,14.37
2019-02-18T12:21:28.842Z,14.62
2019-02-18T12:23:56.239Z,15.03
2019-02-18T12:26:23.680Z,14.97
2019-02-18T12:28:51.518Z,14.99
2019-02-18T12:31:18.938Z,14.61
2019-02-18T12:33:46.375Z,14.91
2019-02-18T12:36:13.461Z,14.99
2019-02-18T12:38:41.155Z,14.75
2019-02-18T12:41:08.929Z,15.11
2019-02-18T12:43:36.669Z,15.14
2019-02-18T12:46:04.060Z,15.21
2019-02-18T12:48:31.477Z,14.97
2019-02-18T12:50:58.917Z,15.39
2019-02-18T12:53:25.974Z,15.35
2019-02-18T12:55:53.046Z,15.14
2019-02-18T12:58:21.216Z,15.08
2019-02-18T13:00:49.488Z,15.00
2019-02-18T13:03:16.571Z,15.54
2019-02-18T13:05:43.943Z,15.58
2019-02-18T13:08:12.793Z,15.24
2019-02-18T13:10:39.876Z,15.17
2019-02-18T13:13:07.503Z,15.33
2019-02-18T13:15:35.879Z,15.42
2019-02-18T13:20:31.400Z,15.22
2019-02-18T13:23:00.393Z,15.48
2019-02-18T13:25:29.090Z,15.58
2019-02-18T13:27:57.382Z,16.64
2019-02-18T13:30:24.453Z,17.01
2019-02-18T13:32:52.650Z,17.32
2019-02-18T13:35:21.130Z,17.72
2019-02-18T13:37:48.501Z,18.87
2019-02-18T13:40:15.895Z,18.95
2019-02-18T13:42:44.746Z,18.75
2019-02-18T13:45:12.103Z,17.89
2019-02-18T13:47:39.863Z,17.82
2019-02-18T13:50:07.387Z,18.85
2019-02-18T13:52:34.775Z,18.92
2019-02-18T13:55:02.541Z,18.41
2019-02-18T13:57:29.703Z,18.30
2019-02-18T13:59:57.055Z,18.06
2019-02-18T14:02:24.336Z,18.17
2019-02-18T14:04:51.909Z,17.72
2019-02-18T14:07:19.081Z,17.43
2019-02-18T14:09:47.225Z,16.71
2019-02-18T14:12:16.364Z,16.85
2019-02-18T14:14:43.325Z,16.46
2019-02-18T14:17:10.680Z,16.51
2019-02-18T14:19:37.879Z,16.89
2019-02-18T14:22:06.876Z,16.87
2019-02-18T14:24:33.927Z,17.24
2019-02-18T14:27:05.567Z,17.33
2019-02-18T14:29:32.631Z,16.76
2019-02-18T14:32:01.529Z,16.97
2019-02-18T14:34:29.070Z,17.52
2019-02-18T14:36:56.104Z,17.58
2019-02-18T14:39:25.195Z,17.33
2019-02-18T14:41:54.049Z,16.70
2019-02-18T14:44:21.188Z,16.44
2019-02-18T14:46:48.757Z,16.48
2019-02-18T14:49:18.778Z,16.70
2019-02-18T14:51:46.437Z,17.22
2019-02-18T14:54:15.224Z,16.78
2019-02-18T14:56:42.577Z,18.21
2019-02-18T14:59:09.939Z,17.88
2019-02-18T15:01:37.393Z,16.84
2019-02-18T15:04:05.561Z,16.90
2019-02-18T15:06:33.222Z,16.78
2019-02-18T15:09:00.885Z,16.39
2019-02-18T15:11:28.858Z,16.96
2019-02-18T15:13:56.215Z,17.12
2019-02-18T15:16:25.298Z,16.68
2019-02-18T15:18:53.413Z,16.66
2019-02-18T15:21:20.468Z,17.09
2019-02-18T15:23:47.915Z,17.21
2019-02-18T15:26:15.339Z,17.52
2019-02-18T15:28:42.482Z,17.72
2019-02-18T15:31:09.549Z,17.85
2019-02-18T15:33:37.802Z,17.87
2019-02-18T15:36:04.873Z,18.23
2019-02-18T15:38:32.026Z,17.96
2019-02-18T15:40:59.387Z,18.00
2019-02-18T15:43:26.818Z,17.80
2019-02-18T15:45:53.941Z,17.70
2019-02-18T15:48:21.501Z,17.20
2019-02-18T15:50:48.598Z,16.44
2019-02-18T15:53:16.054Z,16.17
2019-02-18T15:55:43.111Z,15.93
2019-02-18T15:58:11.502Z,15.57
2019-02-18T16:00:38.810Z,15.27
2019-02-18T16:03:06.422Z,15.06
2019-02-18T16:05:34.034Z,14.74
2019-02-18T16:08:01.692Z,14.73
2019-02-18T16:10:29.455Z,14.60
2019-02-18T16:12:56.810Z,14.42
2019-02-18T16:15:24.777Z,14.17
2019-02-18T16:17:52.135Z,14.10
2019-02-18T16:20:20.000Z,14.15
2019-02-18T16:22:47.582Z,14.17
2019-02-18T16:25:18.097Z,13.89
2019-02-18T16:27:45.548Z,13.88
2019-02-18T16:30:13.012Z,13.83
2019-02-18T16:32:40.688Z,13.91
2019-02-18T16:35:08.378Z,13.68
2019-02-18T16:37:36.122Z,13.57
2019-02-18T16:40:04.328Z,13.38
2019-02-18T16:42:33.287Z,13.50
2019-02-18T16:45:00.776Z,13.36
2019-02-18T16:47:29.411Z,13.23
2019-02-18T16:49:56.531Z,13.08
2019-02-18T16:52:24.744Z,12.96
2019-02-18T16:54:52.120Z,12.85
2019-02-18T16:57:21.285Z,12.76
2019-02-18T16:59:49.039Z,12.65
2019-02-18T17:02:16.432Z,12.68
2019-02-18T17:04:44.373Z,12.66
2019-02-18T17:07:11.761Z,12.53
2019-02-18T17:09:38.814Z,12.52
2019-02-18T17:12:05.951Z,12.66
2019-02-18T17:14:33.025Z,12.48
2019-02-18T17:17:00.073Z,12.46
2019-02-18T17:19:27.486Z,12.40
2019-02-18T17:21:55.535Z,12.17
2019-02-18T17:24:22.644Z,11.90
2019-02-18T17:26:52.089Z,12.02
2019-02-18T17:29:19.588Z,12.20
2019-02-18T17:31:48.444Z,12.09
2019-02-18T17:34:15.521Z,11.79
2019-02-18T17:36:42.971Z,11.99
2019-02-18T17:39:10.051Z,11.95
2019-02-18T17:41:37.207Z,11.83
2019-02-18T17:44:04.998Z,11.58
2019-02-18T17:46:32.357Z,11.39
2019-02-18T17:48:59.431Z,11.43
2019-02-18T17:51:27.064Z,11.57
2019-02-18T17:53:55.134Z,11.36
2019-02-18T17:56:23.208Z,11.37
2019-02-18T17:58:51.626Z,11.70
2019-02-18T18:01:19.869Z,11.54
2019-02-18T18:03:47.522Z,11.50
2019-02-18T18:06:15.043Z,11.38
2019-02-18T18:08:43.540Z,11.56
2019-02-18T18:11:11.037Z,11.37
2019-02-18T18:13:38.088Z,11.10
2019-02-18T18:16:05.156Z,11.15
2019-02-18T18:18:32.690Z,10.98
2019-02-18T18:20:59.782Z,11.21
2019-02-18T18:23:26.815Z,11.15
2019-02-18T18:25:53.862Z,11.13
2019-02-18T18:28:21.515Z,10.97
2019-02-18T18:30:50.061Z,11.15
2019-02-18T18:33:19.869Z,11.32
2019-02-18T18:35:47.444Z,11.43
2019-02-18T18:38:14.595Z,11.26
2019-02-18T18:40:41.663Z,11.04
2019-02-18T18:43:08.747Z,11.00
2019-02-18T18:45:37.458Z,11.11
2019-02-18T18:48:05.035Z,10.83
2019-02-18T18:50:32.714Z,10.99
2019-02-18T18:53:00.366Z,10.99
2019-02-18T18:55:28.003Z,10.87
2019-02-18T18:57:56.568Z,11.09
2019-02-18T19:00:23.804Z,10.91
2019-02-18T19:02:51.212Z,11.17
